sensor_id;sensor_type;location;lat;lon;timestamp;temperature;humidity
1049;DHT22;513;51.444;7.196;2023-02-03T00:01:19;8.10;99.90
1049;DHT22;513;51.444;7.196;2023-02-03T00:03:48;8.10;99.90
1049;DHT22;513;51.444;7.196;2023-02-03T00:06:15;8.10;99.90
1049;DHT22;513;51.444;7.196;2023-02-03T00:08:41;8.00;99.90
1049;DHT22;513;51.444;7.196;2023-02-03T00:11:08;8.10;99.90
1049;DHT22;513;51.444;7.196;2023-02-03T00:13:34;8.10;99.90
1049;DHT22;513;51.444;7.196;2023-02-03T00:16:01;8.10;99.90
1049;DHT22;513;51.444;7.196;2023-02-03T00:18:30;8.10;99.90
1049;DHT22;513;51.444;7.196;2023-02-03T00:20:58;8.10;99.90
1049;DHT22;513;51.444;7.196;2023-02-03T00:23:25;8.10;99.90
1049;DHT22;513;51.444;7.196;2023-02-03T00:25:54;8.20;99.90
1049;DHT22;513;51.444;7.196;2023-02-03T00:28:20;8.10;99.90
1049;DHT22;513;51.444;7.196;2023-02-03T00:30:47;8.10;99.90
1049;DHT22;513;51.444;7.196;2023-02-03T00:33:13;8.20;99.90
1049;DHT22;513;51.444;7.196;2023-02-03T00:35:40;8.10;99.90
1049;DHT22;513;51.444;7.196;2023-02-03T00:38:08;8.20;99.90
1049;DHT22;513;51.444;7.196;2023-02-03T00:40:35;8.20;99.90
1049;DHT22;513;51.444;7.196;2023-02-03T00:43:01;8.20;99.90
1049;DHT22;513;51.444;7.196;2023-02-03T00:45:28;8.20;99.90
1049;DHT22;513;51.444;7.196;2023-02-03T00:47:54;8.20;99.90
1049;DHT22;513;51.444;7.196;2023-02-03T00:50:21;8.10;99.90
1049;DHT22;513;51.444;7.196;2023-02-03T00:52:47;8.10;99.90
1049;DHT22;513;51.444;7.196;2023-02-03T00:55:15;8.10;99.90
1049;DHT22;513;51.444;7.196;2023-02-03T00:57:41;8.20;99.90
1049;DHT22;513;51.444;7.196;2023-02-03T01:00:08;8.20;99.90
1049;DHT22;513;51.444;7.196;2023-02-03T01:02:35;8.20;99.90
1049;DHT22;513;51.444;7.196;2023-02-03T01:05:02;8.20;99.90
1049;DHT22;513;51.444;7.196;2023-02-03T01:07:30;8.20;99.90
1049;DHT22;513;51.444;7.196;2023-02-03T01:09:57;8.20;99.90
1049;DHT22;513;51.444;7.196;2023-02-03T01:12:25;8.30;99.90
1049;DHT22;513;51.444;7.196;2023-02-03T01:14:53;8.20;99.90
1049;DHT22;513;51.444;7.196;2023-02-03T01:17:20;8.20;99.90
1049;DHT22;513;51.444;7.196;2023-02-03T01:19:46;8.20;99.90
1049;DHT22;513;51.444;7.196;2023-02-03T01:22:13;8.20;99.90
1049;DHT22;513;51.444;7.196;2023-02-03T01:24:39;8.30;99.90
1049;DHT22;513;51.444;7.196;2023-02-03T01:27:06;8.30;99.90
1049;DHT22;513;51.444;7.196;2023-02-03T01:29:34;8.30;99.90
1049;DHT22;513;51.444;7.196;2023-02-03T01:32:01;8.30;99.90
1049;DHT22;513;51.444;7.196;2023-02-03T01:34:27;8.30;99.90
1049;DHT22;513;51.444;7.196;2023-02-03T01:36:54;8.30;99.90
1049;DHT22;513;51.444;7.196;2023-02-03T01:39:20;8.30;99.90
1049;DHT22;513;51.444;7.196;2023-02-03T01:41:47;8.30;99.90
1049;DHT22;513;51.444;7.196;2023-02-03T01:47:19;8.30;99.90
1049;DHT22;513;51.444;7.196;2023-02-03T01:49:48;8.30;99.90
1049;DHT22;513;51.444;7.196;2023-02-03T01:52:15;8.30;99.90
1049;DHT22;513;51.444;7.196;2023-02-03T01:54:42;8.30;99.90
1049;DHT22;513;51.444;7.196;2023-02-03T01:57:10;8.30;99.90
1049;DHT22;513;51.444;7.196;2023-02-03T01:59:38;8.40;99.90
1049;DHT22;513;51.444;7.196;2023-02-03T02:02:05;8.40;99.90
1049;DHT22;513;51.444;7.196;2023-02-03T02:04:35;8.40;99.90
1049;DHT22;513;51.444;7.196;2023-02-03T02:07:05;8.40;99.90
1049;DHT22;513;51.444;7.196;2023-02-03T02:09:32;8.40;99.90
1049;DHT22;513;51.444;7.196;2023-02-03T02:11:59;8.50;99.90
1049;DHT22;513;51.444;7.196;2023-02-03T02:14:26;8.40;99.90
1049;DHT22;513;51.444;7.196;2023-02-03T02:16:54;8.40;99.90
1049;DHT22;513;51.444;7.196;2023-02-03T02:19:29;8.40;99.90
1049;DHT22;513;51.444;7.196;2023-02-03T02:22:04;8.40;99.90
1049;DHT22;513;51.444;7.196;2023-02-03T02:27:30;8.40;99.90
1049;DHT22;513;51.444;7.196;2023-02-03T02:35:29;8.40;99.90
1049;DHT22;513;51.444;7.196;2023-02-03T02:37:58;8.40;99.90
1049;DHT22;513;51.444;7.196;2023-02-03T02:40:29;8.40;99.90
1049;DHT22;513;51.444;7.196;2023-02-03T02:43:00;8.40;99.90
1049;DHT22;513;51.444;7.196;2023-02-03T02:45:28;8.40;99.90
1049;DHT22;513;51.444;7.196;2023-02-03T02:47:58;8.40;99.90
1049;DHT22;513;51.444;7.196;2023-02-03T02:50:25;8.30;99.90
1049;DHT22;513;51.444;7.196;2023-02-03T02:52:55;8.40;99.90
1049;DHT22;513;51.444;7.196;2023-02-03T02:55:23;8.40;99.90
1049;DHT22;513;51.444;7.196;2023-02-03T02:57:52;8.40;99.90
1049;DHT22;513;51.444;7.196;2023-02-03T03:00:20;8.40;99.90
1049;DHT22;513;51.444;7.196;2023-02-03T03:02:47;8.40;99.90
1049;DHT22;513;51.444;7.196;2023-02-03T03:05:14;8.40;99.90
1049;DHT22;513;51.444;7.196;2023-02-03T03:07:42;8.40;99.90
1049;DHT22;513;51.444;7.196;2023-02-03T03:10:12;8.40;99.90
1049;DHT22;513;51.444;7.196;2023-02-03T03:12:40;8.40;99.90
1049;DHT22;513;51.444;7.196;2023-02-03T03:15:09;8.40;99.90
1049;DHT22;513;51.444;7.196;2023-02-03T03:17:38;8.40;99.90
1049;DHT22;513;51.444;7.196;2023-02-03T03:20:07;8.40;99.90
1049;DHT22;513;51.444;7.196;2023-02-03T03:22:36;8.40;99.90
1049;DHT22;513;51.444;7.196;2023-02-03T03:25:07;8.40;99.90
1049;DHT22;513;51.444;7.196;2023-02-03T03:27:36;8.30;99.90
1049;DHT22;513;51.444;7.196;2023-02-03T03:30:05;8.30;99.90
1049;DHT22;513;51.444;7.196;2023-02-03T03:32:34;8.30;99.90
1049;DHT22;513;51.444;7.196;2023-02-03T03:35:00;8.30;99.90
1049;DHT22;513;51.444;7.196;2023-02-03T03:37:29;8.30;99.90
1049;DHT22;513;51.444;7.196;2023-02-03T03:39:58;8.30;99.90
1049;DHT22;513;51.444;7.196;2023-02-03T03:42:26;8.40;99.90
1049;DHT22;513;51.444;7.196;2023-02-03T03:44:56;8.40;99.90
1049;DHT22;513;51.444;7.196;2023-02-03T03:47:24;8.30;99.90
1049;DHT22;513;51.444;7.196;2023-02-03T03:49:53;8.30;99.90
1049;DHT22;513;51.444;7.196;2023-02-03T03:52:21;8.30;99.90
1049;DHT22;513;51.444;7.196;2023-02-03T03:54:48;8.30;99.90
1049;DHT22;513;51.444;7.196;2023-02-03T03:57:16;8.30;99.90
1049;DHT22;513;51.444;7.196;2023-02-03T03:59:44;8.30;99.90
1049;DHT22;513;51.444;7.196;2023-02-03T04:02:13;8.40;99.90
1049;DHT22;513;51.444;7.196;2023-02-03T04:04:41;8.30;99.90
1049;DHT22;513;51.444;7.196;2023-02-03T04:07:10;8.30;99.90
1049;DHT22;513;51.444;7.196;2023-02-03T04:09:37;8.40;99.90
1049;DHT22;513;51.444;7.196;2023-02-03T04:12:05;8.30;99.90
1049;DHT22;513;51.444;7.196;2023-02-03T04:14:33;8.40;99.90
1049;DHT22;513;51.444;7.196;2023-02-03T04:17:00;8.30;99.90
1049;DHT22;513;51.444;7.196;2023-02-03T04:19:28;8.30;99.90
1049;DHT22;513;51.444;7.196;2023-02-03T04:21:54;8.40;99.90
1049;DHT22;513;51.444;7.196;2023-02-03T04:24:21;8.40;99.90
1049;DHT22;513;51.444;7.196;2023-02-03T04:26:48;8.30;99.90
1049;DHT22;513;51.444;7.196;2023-02-03T04:29:14;8.40;99.90
1049;DHT22;513;51.444;7.196;2023-02-03T04:31:41;8.40;99.90
1049;DHT22;513;51.444;7.196;2023-02-03T04:34:08;8.30;99.90
1049;DHT22;513;51.444;7.196;2023-02-03T04:36:35;8.40;99.90
1049;DHT22;513;51.444;7.196;2023-02-03T04:39:02;8.40;99.90
1049;DHT22;513;51.444;7.196;2023-02-03T04:41:29;8.40;99.90
1049;DHT22;513;51.444;7.196;2023-02-03T04:43:55;8.40;99.90
1049;DHT22;513;51.444;7.196;2023-02-03T04:46:22;8.40;99.90
1049;DHT22;513;51.444;7.196;2023-02-03T04:48:48;8.50;99.90
1049;DHT22;513;51.444;7.196;2023-02-03T04:51:15;8.40;99.90
1049;DHT22;513;51.444;7.196;2023-02-03T04:53:42;8.50;99.90
1049;DHT22;513;51.444;7.196;2023-02-03T04:56:09;8.40;99.90
1049;DHT22;513;51.444;7.196;2023-02-03T04:58:36;8.40;99.90
1049;DHT22;513;51.444;7.196;2023-02-03T05:01:05;8.40;99.90
1049;DHT22;513;51.444;7.196;2023-02-03T05:03:31;8.50;99.90
1049;DHT22;513;51.444;7.196;2023-02-03T05:05:58;8.50;99.90
1049;DHT22;513;51.444;7.196;2023-02-03T05:08:25;8.40;99.90
1049;DHT22;513;51.444;7.196;2023-02-03T05:10:52;8.40;99.90
1049;DHT22;513;51.444;7.196;2023-02-03T05:13:19;8.40;99.90
1049;DHT22;513;51.444;7.196;2023-02-03T05:15:45;8.50;99.90
1049;DHT22;513;51.444;7.196;2023-02-03T05:18:12;8.40;99.90
1049;DHT22;513;51.444;7.196;2023-02-03T05:20:38;8.50;99.90
1049;DHT22;513;51.444;7.196;2023-02-03T05:23:05;8.50;99.90
1049;DHT22;513;51.444;7.196;2023-02-03T05:25:32;8.40;99.90
1049;DHT22;513;51.444;7.196;2023-02-03T05:27:59;8.40;99.90
1049;DHT22;513;51.444;7.196;2023-02-03T05:30:26;8.50;99.90
1049;DHT22;513;51.444;7.196;2023-02-03T05:32:52;8.50;99.90
1049;DHT22;513;51.444;7.196;2023-02-03T05:35:19;8.50;99.90
1049;DHT22;513;51.444;7.196;2023-02-03T05:37:45;8.50;99.90
1049;DHT22;513;51.444;7.196;2023-02-03T05:40:13;8.50;99.90
1049;DHT22;513;51.444;7.196;2023-02-03T05:43:13;8.50;99.90
1049;DHT22;513;51.444;7.196;2023-02-03T05:45:40;8.50;99.90
1049;DHT22;513;51.444;7.196;2023-02-03T05:48:06;8.50;99.90
1049;DHT22;513;51.444;7.196;2023-02-03T05:50:33;8.50;99.90
1049;DHT22;513;51.444;7.196;2023-02-03T05:53:00;8.50;99.90
1049;DHT22;513;51.444;7.196;2023-02-03T05:55:26;8.50;99.90
1049;DHT22;513;51.444;7.196;2023-02-03T05:57:53;8.50;99.90
1049;DHT22;513;51.444;7.196;2023-02-03T06:00:21;8.40;99.90
1049;DHT22;513;51.444;7.196;2023-02-03T06:02:51;8.50;99.90
1049;DHT22;513;51.444;7.196;2023-02-03T06:05:18;8.50;99.90
1049;DHT22;513;51.444;7.196;2023-02-03T06:07:45;8.40;99.90
1049;DHT22;513;51.444;7.196;2023-02-03T06:10:11;8.50;99.90
1049;DHT22;513;51.444;7.196;2023-02-03T06:12:38;8.40;99.90
1049;DHT22;513;51.444;7.196;2023-02-03T06:15:05;8.40;99.90
1049;DHT22;513;51.444;7.196;2023-02-03T06:17:33;8.50;99.90
1049;DHT22;513;51.444;7.196;2023-02-03T06:20:00;8.50;99.90
1049;DHT22;513;51.444;7.196;2023-02-03T06:22:26;8.50;99.90
1049;DHT22;513;51.444;7.196;2023-02-03T06:24:53;8.50;99.90
1049;DHT22;513;51.444;7.196;2023-02-03T06:27:19;8.50;99.90
1049;DHT22;513;51.444;7.196;2023-02-03T06:29:46;8.50;99.90
1049;DHT22;513;51.444;7.196;2023-02-03T06:32:13;8.50;99.90
1049;DHT22;513;51.444;7.196;2023-02-03T06:34:41;8.50;99.90
1049;DHT22;513;51.444;7.196;2023-02-03T06:37:07;8.50;99.90
1049;DHT22;513;51.444;7.196;2023-02-03T06:39:34;8.50;99.90
1049;DHT22;513;51.444;7.196;2023-02-03T06:42:00;8.50;99.90
1049;DHT22;513;51.444;7.196;2023-02-03T06:44:27;8.50;99.90
1049;DHT22;513;51.444;7.196;2023-02-03T06:46:54;8.50;99.90
1049;DHT22;513;51.444;7.196;2023-02-03T06:49:20;8.60;99.90
1049;DHT22;513;51.444;7.196;2023-02-03T06:51:48;8.60;99.90
1049;DHT22;513;51.444;7.196;2023-02-03T06:54:16;8.60;99.90
1049;DHT22;513;51.444;7.196;2023-02-03T06:56:43;8.60;99.90
1049;DHT22;513;51.444;7.196;2023-02-03T06:59:09;8.60;99.90
1049;DHT22;513;51.444;7.196;2023-02-03T07:01:36;8.60;99.90
1049;DHT22;513;51.444;7.196;2023-02-03T07:04:03;8.60;99.90
1049;DHT22;513;51.444;7.196;2023-02-03T07:06:29;8.60;99.90
1049;DHT22;513;51.444;7.196;2023-02-03T07:09:00;8.60;99.90
1049;DHT22;513;51.444;7.196;2023-02-03T07:11:26;8.50;99.90
1049;DHT22;513;51.444;7.196;2023-02-03T07:13:53;8.50;99.90
1049;DHT22;513;51.444;7.196;2023-02-03T07:16:20;8.40;99.90
1049;DHT22;513;51.444;7.196;2023-02-03T07:18:46;8.40;99.90
1049;DHT22;513;51.444;7.196;2023-02-03T07:21:13;8.40;99.90
1049;DHT22;513;51.444;7.196;2023-02-03T07:23:40;8.40;99.90
1049;DHT22;513;51.444;7.196;2023-02-03T07:26:09;8.40;99.90
1049;DHT22;513;51.444;7.196;2023-02-03T07:28:35;8.40;99.90
1049;DHT22;513;51.444;7.196;2023-02-03T07:31:03;8.40;99.90
1049;DHT22;513;51.444;7.196;2023-02-03T07:33:30;8.40;99.90
1049;DHT22;513;51.444;7.196;2023-02-03T07:35:57;8.40;99.90
1049;DHT22;513;51.444;7.196;2023-02-03T07:38:24;8.50;99.90
1049;DHT22;513;51.444;7.196;2023-02-03T07:40:51;8.50;99.90
1049;DHT22;513;51.444;7.196;2023-02-03T07:43:19;8.50;99.90
1049;DHT22;513;51.444;7.196;2023-02-03T07:45:45;8.50;99.90
1049;DHT22;513;51.444;7.196;2023-02-03T07:48:12;8.60;99.90
1049;DHT22;513;51.444;7.196;2023-02-03T07:50:38;8.60;99.90
1049;DHT22;513;51.444;7.196;2023-02-03T07:53:05;8.70;99.90
1049;DHT22;513;51.444;7.196;2023-02-03T07:55:33;8.70;99.90
1049;DHT22;513;51.444;7.196;2023-02-03T07:58:00;8.70;99.90
1049;DHT22;513;51.444;7.196;2023-02-03T08:00:28;8.70;99.90
1049;DHT22;513;51.444;7.196;2023-02-03T08:02:54;8.70;99.90
1049;DHT22;513;51.444;7.196;2023-02-03T08:05:21;8.70;99.90
1049;DHT22;513;51.444;7.196;2023-02-03T08:07:47;8.70;99.90
1049;DHT22;513;51.444;7.196;2023-02-03T08:10:14;8.70;99.90
1049;DHT22;513;51.444;7.196;2023-02-03T08:12:42;8.70;99.90
1049;DHT22;513;51.444;7.196;2023-02-03T08:15:09;8.80;99.90
1049;DHT22;513;51.444;7.196;2023-02-03T08:17:37;8.80;99.90
1049;DHT22;513;51.444;7.196;2023-02-03T08:20:04;8.80;99.90
1049;DHT22;513;51.444;7.196;2023-02-03T08:22:31;8.80;99.90
1049;DHT22;513;51.444;7.196;2023-02-03T08:24:57;8.80;99.90
1049;DHT22;513;51.444;7.196;2023-02-03T08:27:24;8.80;99.90
1049;DHT22;513;51.444;7.196;2023-02-03T08:29:51;8.70;99.90
1049;DHT22;513;51.444;7.196;2023-02-03T08:32:19;8.80;99.90
1049;DHT22;513;51.444;7.196;2023-02-03T08:34:48;8.80;99.90
1049;DHT22;513;51.444;7.196;2023-02-03T08:37:15;8.80;99.90
1049;DHT22;513;51.444;7.196;2023-02-03T08:39:42;8.80;99.90
1049;DHT22;513;51.444;7.196;2023-02-03T08:42:09;8.70;99.90
1049;DHT22;513;51.444;7.196;2023-02-03T08:44:35;8.70;99.90
1049;DHT22;513;51.444;7.196;2023-02-03T08:47:03;8.70;99.90
1049;DHT22;513;51.444;7.196;2023-02-03T08:49:30;8.70;99.90
1049;DHT22;513;51.444;7.196;2023-02-03T08:51:58;8.70;99.90
1049;DHT22;513;51.444;7.196;2023-02-03T08:54:24;8.70;99.90
1049;DHT22;513;51.444;7.196;2023-02-03T08:56:51;8.70;99.90
1049;DHT22;513;51.444;7.196;2023-02-03T08:59:18;8.70;99.90
1049;DHT22;513;51.444;7.196;2023-02-03T09:01:44;8.70;99.90
1049;DHT22;513;51.444;7.196;2023-02-03T09:04:12;8.80;99.90
1049;DHT22;513;51.444;7.196;2023-02-03T09:06:39;8.80;99.90
1049;DHT22;513;51.444;7.196;2023-02-03T09:09:07;8.90;99.90
1049;DHT22;513;51.444;7.196;2023-02-03T09:11:34;8.80;99.90
1049;DHT22;513;51.444;7.196;2023-02-03T09:14:01;8.90;99.90
1049;DHT22;513;51.444;7.196;2023-02-03T09:16:27;8.80;99.90
1049;DHT22;513;51.444;7.196;2023-02-03T09:18:55;8.80;99.90
1049;DHT22;513;51.444;7.196;2023-02-03T09:21:21;8.80;99.90
1049;DHT22;513;51.444;7.196;2023-02-03T09:23:48;8.90;99.90
1049;DHT22;513;51.444;7.196;2023-02-03T09:26:17;8.80;99.90
1049;DHT22;513;51.444;7.196;2023-02-03T09:28:43;8.80;99.90
1049;DHT22;513;51.444;7.196;2023-02-03T09:31:11;8.90;99.90
1049;DHT22;513;51.444;7.196;2023-02-03T09:33:37;8.80;99.90
1049;DHT22;513;51.444;7.196;2023-02-03T09:36:05;8.90;99.90
1049;DHT22;513;51.444;7.196;2023-02-03T09:38:31;8.80;99.90
1049;DHT22;513;51.444;7.196;2023-02-03T09:41:00;8.80;99.90
1049;DHT22;513;51.444;7.196;2023-02-03T09:43:30;8.80;99.90
1049;DHT22;513;51.444;7.196;2023-02-03T09:46:01;8.80;99.90
1049;DHT22;513;51.444;7.196;2023-02-03T09:48:30;8.90;99.90
1049;DHT22;513;51.444;7.196;2023-02-03T09:50:58;8.90;99.90
1049;DHT22;513;51.444;7.196;2023-02-03T09:53:26;8.90;99.90
1049;DHT22;513;51.444;7.196;2023-02-03T09:55:53;8.90;99.90
1049;DHT22;513;51.444;7.196;2023-02-03T09:58:20;8.80;99.90
1049;DHT22;513;51.444;7.196;2023-02-03T10:00:49;8.90;99.90
1049;DHT22;513;51.444;7.196;2023-02-03T10:03:22;8.80;99.90
1049;DHT22;513;51.444;7.196;2023-02-03T10:06:00;8.80;99.90
1049;DHT22;513;51.444;7.196;2023-02-03T10:08:52;8.80;99.90
1049;DHT22;513;51.444;7.196;2023-02-03T10:11:27;8.80;99.90
1049;DHT22;513;51.444;7.196;2023-02-03T10:14:04;8.80;99.90
1049;DHT22;513;51.444;7.196;2023-02-03T10:16:41;8.90;99.90
1049;DHT22;513;51.444;7.196;2023-02-03T10:19:14;8.90;99.90
1049;DHT22;513;51.444;7.196;2023-02-03T10:21:45;9.00;99.90
1049;DHT22;513;51.444;7.196;2023-02-03T10:24:14;9.00;99.90
1049;DHT22;513;51.444;7.196;2023-02-03T10:26:42;9.10;99.90
1049;DHT22;513;51.444;7.196;2023-02-03T10:29:14;9.10;99.90
1049;DHT22;513;51.444;7.196;2023-02-03T10:31:45;9.00;99.90
1049;DHT22;513;51.444;7.196;2023-02-03T10:34:13;9.00;99.90
1049;DHT22;513;51.444;7.196;2023-02-03T10:36:46;9.00;99.90
1049;DHT22;513;51.444;7.196;2023-02-03T10:39:16;9.00;99.90
1049;DHT22;513;51.444;7.196;2023-02-03T10:41:45;9.00;99.90
1049;DHT22;513;51.444;7.196;2023-02-03T10:44:12;9.00;99.90
1049;DHT22;513;51.444;7.196;2023-02-03T10:46:40;9.00;99.90
1049;DHT22;513;51.444;7.196;2023-02-03T10:49:10;10.20;99.90
1049;DHT22;513;51.444;7.196;2023-02-03T10:51:39;8.90;99.90
1049;DHT22;513;51.444;7.196;2023-02-03T10:54:12;8.90;99.90
1049;DHT22;513;51.444;7.196;2023-02-03T10:56:51;9.00;99.90
1049;DHT22;513;51.444;7.196;2023-02-03T10:59:24;9.00;99.90
1049;DHT22;513;51.444;7.196;2023-02-03T11:01:53;9.10;99.90
1049;DHT22;513;51.444;7.196;2023-02-03T11:04:23;9.30;99.90
1049;DHT22;513;51.444;7.196;2023-02-03T11:06:52;9.10;99.90
1049;DHT22;513;51.444;7.196;2023-02-03T11:09:21;9.10;99.90
1049;DHT22;513;51.444;7.196;2023-02-03T11:11:59;9.10;99.90
1049;DHT22;513;51.444;7.196;2023-02-03T11:14:27;9.20;99.90
1049;DHT22;513;51.444;7.196;2023-02-03T11:17:04;9.20;99.90
1049;DHT22;513;51.444;7.196;2023-02-03T11:19:33;9.20;99.90
1049;DHT22;513;51.444;7.196;2023-02-03T11:22:01;9.30;99.90
1049;DHT22;513;51.444;7.196;2023-02-03T11:24:28;9.30;99.90
1049;DHT22;513;51.444;7.196;2023-02-03T11:26:58;9.30;99.90
1049;DHT22;513;51.444;7.196;2023-02-03T11:29:25;9.20;99.90
1049;DHT22;513;51.444;7.196;2023-02-03T11:31:53;9.20;99.90
1049;DHT22;513;51.444;7.196;2023-02-03T11:34:21;9.30;99.90
1049;DHT22;513;51.444;7.196;2023-02-03T11:36:51;9.40;99.90
1049;DHT22;513;51.444;7.196;2023-02-03T11:39:19;9.30;99.90
1049;DHT22;513;51.444;7.196;2023-02-03T11:41:46;9.30;99.90
1049;DHT22;513;51.444;7.196;2023-02-03T11:44:16;9.40;99.90
1049;DHT22;513;51.444;7.196;2023-02-03T11:46:43;9.30;99.90
1049;DHT22;513;51.444;7.196;2023-02-03T11:49:12;9.30;99.90
1049;DHT22;513;51.444;7.196;2023-02-03T11:51:44;9.50;99.90
1049;DHT22;513;51.444;7.196;2023-02-03T11:54:19;9.40;99.90
1049;DHT22;513;51.444;7.196;2023-02-03T11:56:55;9.50;99.90
1049;DHT22;513;51.444;7.196;2023-02-03T11:59:34;9.60;99.90
1049;DHT22;513;51.444;7.196;2023-02-03T12:07:31;9.50;99.90
1049;DHT22;513;51.444;7.196;2023-02-03T12:10:01;9.60;99.90
1049;DHT22;513;51.444;7.196;2023-02-03T12:12:42;9.50;99.90
1049;DHT22;513;51.444;7.196;2023-02-03T12:15:33;9.50;99.90
1049;DHT22;513;51.444;7.196;2023-02-03T12:18:10;9.50;99.90
1049;DHT22;513;51.444;7.196;2023-02-03T12:20:41;9.40;99.90
1049;DHT22;513;51.444;7.196;2023-02-03T12:23:12;9.40;99.90
1049;DHT22;513;51.444;7.196;2023-02-03T12:25:47;9.50;99.90
1049;DHT22;513;51.444;7.196;2023-02-03T12:28:20;9.50;99.90
1049;DHT22;513;51.444;7.196;2023-02-03T12:30:48;9.50;99.90
1049;DHT22;513;51.444;7.196;2023-02-03T12:33:18;9.40;99.90
1049;DHT22;513;51.444;7.196;2023-02-03T12:35:47;9.40;99.90
1049;DHT22;513;51.444;7.196;2023-02-03T12:38:16;9.40;99.90
1049;DHT22;513;51.444;7.196;2023-02-03T12:40:48;9.40;99.90
1049;DHT22;513;51.444;7.196;2023-02-03T12:43:19;9.40;99.90
1049;DHT22;513;51.444;7.196;2023-02-03T12:45:49;9.40;99.90
1049;DHT22;513;51.444;7.196;2023-02-03T12:48:18;9.40;99.90
1049;DHT22;513;51.444;7.196;2023-02-03T12:50:47;9.40;99.90
1049;DHT22;513;51.444;7.196;2023-02-03T12:53:16;9.40;99.90
1049;DHT22;513;51.444;7.196;2023-02-03T12:55:45;9.40;99.90
1049;DHT22;513;51.444;7.196;2023-02-03T12:58:17;9.40;99.90
1049;DHT22;513;51.444;7.196;2023-02-03T13:00:46;9.40;99.90
1049;DHT22;513;51.444;7.196;2023-02-03T13:03:16;9.40;99.90
1049;DHT22;513;51.444;7.196;2023-02-03T13:05:47;9.50;99.90
1049;DHT22;513;51.444;7.196;2023-02-03T13:08:16;9.60;99.90
1049;DHT22;513;51.444;7.196;2023-02-03T13:10:45;9.60;99.90
1049;DHT22;513;51.444;7.196;2023-02-03T13:13:14;9.70;99.90
1049;DHT22;513;51.444;7.196;2023-02-03T13:15:44;9.70;99.90
1049;DHT22;513;51.444;7.196;2023-02-03T13:18:14;9.60;99.90
1049;DHT22;513;51.444;7.196;2023-02-03T13:20:44;9.70;99.90
1049;DHT22;513;51.444;7.196;2023-02-03T13:23:11;9.70;99.90
1049;DHT22;513;51.444;7.196;2023-02-03T13:25:41;9.80;99.90
1049;DHT22;513;51.444;7.196;2023-02-03T13:28:13;9.70;99.90
1049;DHT22;513;51.444;7.196;2023-02-03T13:30:55;9.80;99.90
1049;DHT22;513;51.444;7.196;2023-02-03T13:36:19;9.80;99.90
1049;DHT22;513;51.444;7.196;2023-02-03T13:38:54;9.80;99.90
1049;DHT22;513;51.444;7.196;2023-02-03T13:41:29;9.90;99.90
1049;DHT22;513;51.444;7.196;2023-02-03T13:44:00;9.80;99.90
1049;DHT22;513;51.444;7.196;2023-02-03T13:46:29;9.80;99.90
1049;DHT22;513;51.444;7.196;2023-02-03T13:48:57;9.80;99.90
1049;DHT22;513;51.444;7.196;2023-02-03T13:51:25;9.80;99.90
1049;DHT22;513;51.444;7.196;2023-02-03T13:53:58;9.80;99.90
1049;DHT22;513;51.444;7.196;2023-02-03T13:56:27;9.80;99.90
1049;DHT22;513;51.444;7.196;2023-02-03T13:58:57;9.80;99.90
1049;DHT22;513;51.444;7.196;2023-02-03T14:01:33;9.80;99.90
1049;DHT22;513;51.444;7.196;2023-02-03T14:04:01;9.70;99.90
1049;DHT22;513;51.444;7.196;2023-02-03T14:09:19;9.60;99.90
1049;DHT22;513;51.444;7.196;2023-02-03T14:11:47;9.50;99.90
1049;DHT22;513;51.444;7.196;2023-02-03T14:17:01;9.40;99.90
1049;DHT22;513;51.444;7.196;2023-02-03T14:22:18;9.10;99.90
1049;DHT22;513;51.444;7.196;2023-02-03T14:24:45;8.70;99.90
1049;DHT22;513;51.444;7.196;2023-02-03T14:27:15;8.50;99.90
1049;DHT22;513;51.444;7.196;2023-02-03T14:29:42;8.40;99.90
1049;DHT22;513;51.444;7.196;2023-02-03T14:32:10;8.30;99.90
1049;DHT22;513;51.444;7.196;2023-02-03T14:34:38;8.20;99.90
1049;DHT22;513;51.444;7.196;2023-02-03T14:37:18;8.10;99.90
1049;DHT22;513;51.444;7.196;2023-02-03T14:40:05;8.10;99.90
1049;DHT22;513;51.444;7.196;2023-02-03T14:42:38;8.00;99.90
1049;DHT22;513;51.444;7.196;2023-02-03T14:45:13;8.10;99.90
1049;DHT22;513;51.444;7.196;2023-02-03T14:47:46;8.00;99.90
1049;DHT22;513;51.444;7.196;2023-02-03T14:50:27;8.00;99.90
1049;DHT22;513;51.444;7.196;2023-02-03T14:53:01;8.10;99.90
1049;DHT22;513;51.444;7.196;2023-02-03T14:55:39;8.10;99.90
1049;DHT22;513;51.444;7.196;2023-02-03T14:58:14;8.10;99.90
1049;DHT22;513;51.444;7.196;2023-02-03T15:00:41;8.10;99.90
1049;DHT22;513;51.444;7.196;2023-02-03T15:03:17;8.20;99.90
1049;DHT22;513;51.444;7.196;2023-02-03T15:05:48;8.20;99.90
1049;DHT22;513;51.444;7.196;2023-02-03T15:08:34;8.20;99.90
1049;DHT22;513;51.444;7.196;2023-02-03T15:11:13;8.30;99.90
1049;DHT22;513;51.444;7.196;2023-02-03T15:13:40;8.20;99.90
1049;DHT22;513;51.444;7.196;2023-02-03T15:16:11;8.20;99.90
1049;DHT22;513;51.444;7.196;2023-02-03T15:18:40;8.10;99.90
1049;DHT22;513;51.444;7.196;2023-02-03T15:21:12;8.10;99.90
1049;DHT22;513;51.444;7.196;2023-02-03T15:23:40;8.10;99.90
1049;DHT22;513;51.444;7.196;2023-02-03T15:26:13;8.20;99.90
1049;DHT22;513;51.444;7.196;2023-02-03T15:28:40;8.10;99.90
1049;DHT22;513;51.444;7.196;2023-02-03T15:31:08;8.20;99.90
1049;DHT22;513;51.444;7.196;2023-02-03T15:33:37;8.30;99.90
1049;DHT22;513;51.444;7.196;2023-02-03T15:36:08;8.30;99.90
1049;DHT22;513;51.444;7.196;2023-02-03T15:38:37;8.20;99.90
1049;DHT22;513;51.444;7.196;2023-02-03T15:41:06;8.20;99.90
1049;DHT22;513;51.444;7.196;2023-02-03T15:43:37;8.30;99.90
1049;DHT22;513;51.444;7.196;2023-02-03T15:46:04;8.40;99.90
1049;DHT22;513;51.444;7.196;2023-02-03T15:48:36;8.40;99.90
1049;DHT22;513;51.444;7.196;2023-02-03T15:51:07;8.40;99.90
1049;DHT22;513;51.444;7.196;2023-02-03T15:53:37;8.40;99.90
1049;DHT22;513;51.444;7.196;2023-02-03T15:56:10;8.40;99.90
1049;DHT22;513;51.444;7.196;2023-02-03T15:58:43;8.40;99.90
1049;DHT22;513;51.444;7.196;2023-02-03T16:01:11;8.40;99.90
1049;DHT22;513;51.444;7.196;2023-02-03T16:03:39;8.50;99.90
1049;DHT22;513;51.444;7.196;2023-02-03T16:06:10;8.50;99.90
1049;DHT22;513;51.444;7.196;2023-02-03T16:08:42;8.40;99.90
1049;DHT22;513;51.444;7.196;2023-02-03T16:11:23;8.30;99.90
1049;DHT22;513;51.444;7.196;2023-02-03T16:13:50;8.20;99.90
1049;DHT22;513;51.444;7.196;2023-02-03T16:16:17;8.10;99.90
1049;DHT22;513;51.444;7.196;2023-02-03T16:18:49;8.10;99.90
1049;DHT22;513;51.444;7.196;2023-02-03T16:21:24;8.10;99.90
1049;DHT22;513;51.444;7.196;2023-02-03T16:23:51;8.10;99.90
1049;DHT22;513;51.444;7.196;2023-02-03T16:26:18;8.20;99.90
1049;DHT22;513;51.444;7.196;2023-02-03T16:29:03;8.10;99.90
1049;DHT22;513;51.444;7.196;2023-02-03T16:31:53;8.20;99.90
1049;DHT22;513;51.444;7.196;2023-02-03T16:34:37;8.20;99.90
1049;DHT22;513;51.444;7.196;2023-02-03T16:37:23;8.20;99.90
1049;DHT22;513;51.444;7.196;2023-02-03T16:40:08;8.20;99.90
1049;DHT22;513;51.444;7.196;2023-02-03T16:42:52;8.10;99.90
1049;DHT22;513;51.444;7.196;2023-02-03T16:45:36;8.10;99.90
1049;DHT22;513;51.444;7.196;2023-02-03T16:48:20;8.10;99.90
1049;DHT22;513;51.444;7.196;2023-02-03T16:51:06;8.10;99.90
1049;DHT22;513;51.444;7.196;2023-02-03T16:53:34;8.00;99.90
1049;DHT22;513;51.444;7.196;2023-02-03T16:56:02;8.00;99.90
1049;DHT22;513;51.444;7.196;2023-02-03T16:58:29;8.10;99.90
1049;DHT22;513;51.444;7.196;2023-02-03T17:00:56;8.10;99.90
1049;DHT22;513;51.444;7.196;2023-02-03T17:03:24;8.00;99.90
1049;DHT22;513;51.444;7.196;2023-02-03T17:05:51;8.00;99.90
1049;DHT22;513;51.444;7.196;2023-02-03T17:08:19;8.10;99.90
1049;DHT22;513;51.444;7.196;2023-02-03T17:10:48;8.00;99.90
1049;DHT22;513;51.444;7.196;2023-02-03T17:13:15;8.00;99.90
1049;DHT22;513;51.444;7.196;2023-02-03T17:15:42;8.10;99.90